Time,TemperatureF,DewpointF,PressureIn,WindDirection,WindDirectionDegrees,WindSpeedMPH,WindSpeedGustMPH,Humidity,HourlyPrecipIn,Conditions,Clouds,dailyrainin,SoftwareType,DateUTC
2013-09-14 00:02:00,54.0,54.0,29.62,NE,40,0.0,7.2,100,0.00,,,0.00,VWS V13.01,2013-09-14 04:02:00,
2013-09-14 00:08:00,53.8,53.8,29.62,NE,40,0.0,0.0,100,0.00,,,0.00,VWS V13.01,2013-09-14 04:08:00,
2013-09-14 00:10:00,54.0,54.0,29.62,NNE,24,0.0,0.0,100,0.00,,,0.00,VWS V13.01,2013-09-14 04:10:00,
2013-09-14 00:12:00,54.0,54.0,29.62,NNE,25,0.0,0.0,100,0.00,,,0.00,VWS V13.01,2013-09-14 04:12:00,
2013-09-14 00:18:00,54.1,54.1,29.62,ENE,77,0.0,0.0,100,0.00,,,0.00,VWS V13.01,2013-09-14 04:18:00,
2013-09-14 00:20:00,54.1,54.1,29.62,NNE,15,0.0,6.3,100,0.00,,,0.00,VWS V13.01,2013-09-14 04:20:00,
2013-09-14 00:26:00,54.3,54.3,29.62,North,9,0.0,6.3,100,0.00,,,0.00,VWS V13.01,2013-09-14 04:26:00,
2013-09-14 00:30:00,54.1,54.1,29.62,NNE,12,0.0,0.0,100,0.00,,,0.00,VWS V13.01,2013-09-14 04:30:00,
2013-09-14 00:36:00,54.3,54.3,29.62,NE,34,0.0,0.0,100,0.00,,,0.00,VWS V13.01,2013-09-14 04:36:00,
2013-09-14 00:42:00,54.3,54.3,29.62,NE,34,0.0,0.0,100,0.00,,,0.00,VWS V13.01,2013-09-14 04:42:00,
2013-09-14 00:48:00,54.1,54.1,29.62,NE,34,0.0,0.0,100,0.00,,,0.00,VWS V13.01,2013-09-14 04:48:00,
2013-09-14 00:54:00,54.3,54.3,29.62,NE,34,0.0,0.0,100,0.00,,,0.00,VWS V13.01,2013-09-14 04:54:00,
2013-09-14 01:00:00,54.3,54.3,29.62,NE,35,0.0,0.0,100,0.00,,,0.00,VWS V13.01,2013-09-14 05:00:00,
2013-09-14 01:06:00,54.1,54.1,29.62,NE,35,0.0,0.0,100,0.00,,,0.00,VWS V13.01,2013-09-14 05:06:00,
2013-09-14 01:12:00,54.1,54.1,29.62,NE,35,0.0,0.0,100,0.00,,,0.00,VWS V13.01,2013-09-14 05:12:00,
2013-09-14 01:18:00,54.3,54.3,29.62,NE,35,0.0,0.0,100,0.00,,,0.00,VWS V13.01,2013-09-14 05:18:00,
2013-09-14 01:24:00,54.3,54.3,29.62,NNE,31,0.0,0.0,100,0.00,,,0.00,VWS V13.01,2013-09-14 05:24:00,
2013-09-14 01:30:00,54.1,54.1,29.62,NNE,32,0.0,0.0,100,0.00,,,0.00,VWS V13.01,2013-09-14 05:30:00,
2013-09-14 01:36:00,54.1,54.1,29.62,NE,39,0.0,0.0,100,0.00,,,0.00,VWS V13.01,2013-09-14 05:36:00,
2013-09-14 01:42:00,54.3,54.3,29.62,North,5,5.4,7.2,100,0.00,,,0.00,VWS V13.01,2013-09-14 05:42:00,
2013-09-14 01:48:00,54.1,54.1,29.62,NNE,23,0.0,0.0,100,0.00,,,0.00,VWS V13.01,2013-09-14 05:48:00,
2013-09-14 01:54:00,54.1,54.1,29.62,NNE,23,0.0,0.0,100,0.00,,,0.00,VWS V13.01,2013-09-14 05:54:00,
2013-09-14 02:00:00,54.1,54.1,29.62,NNE,29,0.0,0.0,100,0.00,,,0.00,VWS V13.01,2013-09-14 06:00:00,
2013-09-14 02:06:00,54.1,54.1,29.62,NNE,29,0.0,0.0,100,0.00,,,0.00,VWS V13.01,2013-09-14 06:06:00,
2013-09-14 02:12:00,54.1,54.1,29.62,NNE,29,0.0,0.0,100,0.00,,,0.00,VWS V13.01,2013-09-14 06:12:00,
2013-09-14 02:18:00,54.1,54.1,29.62,NNE,29,0.0,0.0,100,0.00,,,0.00,VWS V13.01,2013-09-14 06:18:00,
2013-09-14 02:24:00,54.1,54.1,29.59,NNE,31,0.0,0.0,100,0.00,,,0.00,VWS V13.01,2013-09-14 06:24:00,
2013-09-14 02:30:00,54.1,54.1,29.59,NNE,31,0.0,0.0,100,0.00,,,0.00,VWS V13.01,2013-09-14 06:30:00,
2013-09-14 02:36:00,54.1,54.1,29.62,NNE,27,0.0,0.0,100,0.00,,,0.00,VWS V13.01,2013-09-14 06:36:00,
2013-09-14 02:41:00,54.0,54.0,29.62,NNE,23,0.0,0.0,100,0.00,,,0.00,VWS V13.01,2013-09-14 06:41:00,
2013-09-14 02:48:00,54.1,54.1,29.62,NNE,23,0.0,0.0,100,0.00,,,0.00,VWS V13.01,2013-09-14 06:48:00,
2013-09-14 02:54:00,54.0,54.0,29.62,NNE,23,0.0,0.0,100,0.00,,,0.00,VWS V13.01,2013-09-14 06:54:00,
2013-09-14 03:00:00,54.0,54.0,29.62,NNE,23,0.0,0.0,100,0.00,,,0.00,VWS V13.01,2013-09-14 07:00:00,
2013-09-14 03:06:00,54.0,54.0,29.62,NNE,23,0.0,0.0,100,0.00,,,0.00,VWS V13.01,2013-09-14 07:06:00,
2013-09-14 03:12:00,54.0,54.0,29.62,NNE,23,0.0,0.0,100,0.00,,,0.00,VWS V13.01,2013-09-14 07:12:00,
2013-09-14 03:18:00,53.8,53.8,29.62,North,6,5.4,7.2,100,0.00,,,0.00,VWS V13.01,2013-09-14 07:18:00,
2013-09-14 03:24:00,54.0,54.0,29.62,NE,44,0.0,7.2,100,0.00,,,0.00,VWS V13.01,2013-09-14 07:24:00,
2013-09-14 03:30:00,53.8,53.8,29.62,NE,39,0.0,6.3,100,0.00,,,0.00,VWS V13.01,2013-09-14 07:30:00,
2013-09-14 03:36:00,53.8,53.8,29.62,NNE,17,0.0,0.0,100,0.00,,,0.00,VWS V13.01,2013-09-14 07:36:00,
2013-09-14 03:42:00,53.8,53.8,29.62,NE,37,0.0,8.1,100,0.00,,,0.00,VWS V13.01,2013-09-14 07:42:00,
2013-09-14 03:48:00,53.6,53.6,29.62,North,6,0.0,0.0,100,0.00,,,0.00,VWS V13.01,2013-09-14 07:48:00,
2013-09-14 03:54:00,53.6,53.6,29.62,NNE,15,0.0,7.2,100,0.00,,,0.00,VWS V13.01,2013-09-14 07:54:00,
2013-09-14 03:59:00,53.6,53.6,29.62,NE,42,0.0,9.8,100,0.00,,,0.00,VWS V13.01,2013-09-14 07:59:00,
2013-09-14 04:06:00,53.4,53.4,29.62,NNE,17,0.0,8.1,100,0.00,,,0.00,VWS V13.01,2013-09-14 08:06:00,
2013-09-14 04:12:00,53.2,53.2,29.62,NNE,17,0.0,0.0,100,0.00,,,0.00,VWS V13.01,2013-09-14 08:12:00,
2013-09-14 04:18:00,53.1,53.1,29.62,NNE,24,0.0,8.1,100,0.00,,,0.00,VWS V13.01,2013-09-14 08:18:00,
2013-09-14 04:23:00,53.1,53.1,29.65,NNE,22,0.0,0.0,100,0.00,,,0.00,VWS V13.01,2013-09-14 08:23:00,
2013-09-14 04:30:00,52.9,52.9,29.65,ENE,70,0.0,5.4,100,0.00,,,0.00,VWS V13.01,2013-09-14 08:30:00,
2013-09-14 04:36:00,52.9,52.9,29.65,NNE,16,0.0,0.0,100,0.00,,,0.00,VWS V13.01,2013-09-14 08:36:00,
2013-09-14 04:42:00,52.9,52.9,29.65,NNE,16,0.0,0.0,100,0.00,,,0.00,VWS V13.01,2013-09-14 08:42:00,
2013-09-14 04:48:00,52.9,52.9,29.65,NNE,17,0.0,7.2,100,0.00,,,0.00,VWS V13.01,2013-09-14 08:48:00,
2013-09-14 04:54:00,52.9,52.9,29.65,NNE,26,0.0,0.0,100,0.00,,,0.00,VWS V13.01,2013-09-14 08:54:00,
2013-09-14 05:00:00,52.7,52.7,29.65,NE,41,0.0,4.5,100,0.00,,,0.00,VWS V13.01,2013-09-14 09:00:00,
2013-09-14 05:06:00,52.7,52.7,29.65,NE,41,0.0,0.0,100,0.00,,,0.00,VWS V13.01,2013-09-14 09:06:00,
2013-09-14 05:12:00,52.5,52.5,29.65,ENE,57,0.0,0.0,100,0.00,,,0.00,VWS V13.01,2013-09-14 09:12:00,
2013-09-14 05:18:00,52.7,52.7,29.65,North,357,0.0,6.3,100,0.00,,,0.00,VWS V13.01,2013-09-14 09:18:00,
2013-09-14 05:24:00,52.5,52.5,29.65,NNE,16,0.0,5.4,100,0.00,,,0.00,VWS V13.01,2013-09-14 09:24:00,
2013-09-14 05:30:00,52.5,52.5,29.65,NE,50,0.0,0.0,100,0.00,,,0.00,VWS V13.01,2013-09-14 09:30:00,
2013-09-14 05:36:00,52.5,52.5,29.65,North,353,0.0,0.0,100,0.00,,,0.00,VWS V13.01,2013-09-14 09:36:00,
2013-09-14 05:42:00,52.5,52.5,29.65,NE,49,0.0,0.0,100,0.00,,,0.00,VWS V13.01,2013-09-14 09:42:00,
2013-09-14 05:48:00,52.3,52.3,29.65,North,5,0.0,7.2,100,0.00,,,0.00,VWS V13.01,2013-09-14 09:48:00,
2013-09-14 05:54:00,52.2,52.2,29.65,North,353,8.1,10.7,100,0.00,,,0.00,VWS V13.01,2013-09-14 09:54:00,
2013-09-14 06:00:00,52.2,52.2,29.65,NE,47,4.0,7.2,100,0.00,,,0.00,VWS V13.01,2013-09-14 10:00:00,
2013-09-14 06:06:00,52.2,52.2,29.65,NNE,28,0.0,5.4,100,0.00,,,0.00,VWS V13.01,2013-09-14 10:06:00,
2013-09-14 06:12:00,52.0,52.0,29.65,NNE,28,0.0,0.0,100,0.00,,,0.00,VWS V13.01,2013-09-14 10:12:00,
2013-09-14 06:18:00,52.0,52.0,29.65,NNE,24,0.0,0.0,100,0.00,,,0.00,VWS V13.01,2013-09-14 10:18:00,
2013-09-14 06:24:00,52.0,52.0,29.65,North,8,0.0,4.5,100,0.00,,,0.00,VWS V13.01,2013-09-14 10:24:00,
2013-09-14 06:30:00,52.2,52.2,29.65,NNE,12,0.0,0.0,100,0.00,,,0.00,VWS V13.01,2013-09-14 10:30:00,
2013-09-14 06:36:00,52.0,52.0,29.65,NNE,19,0.0,6.3,100,0.00,,,0.00,VWS V13.01,2013-09-14 10:36:00,
2013-09-14 06:42:00,52.0,52.0,29.65,North,7,0.0,5.4,100,0.00,,,0.00,VWS V13.01,2013-09-14 10:42:00,
2013-09-14 06:48:00,52.0,52.0,29.65,NNE,25,0.0,0.0,100,0.00,,,0.00,VWS V13.01,2013-09-14 10:48:00,
2013-09-14 06:54:00,52.0,52.0,29.68,NNE,28,0.0,0.0,100,0.00,,,0.00,VWS V13.01,2013-09-14 10:54:00,
2013-09-14 07:00:00,52.0,52.0,29.68,North,7,0.0,0.0,100,0.00,,,0.00,VWS V13.01,2013-09-14 11:00:00,
2013-09-14 07:06:00,52.0,52.0,29.68,North,6,0.0,7.2,100,0.00,,,0.00,VWS V13.01,2013-09-14 11:06:00,
2013-09-14 07:12:00,52.0,52.0,29.68,North,10,3.4,8.1,100,0.00,,,0.00,VWS V13.01,2013-09-14 11:12:00,
2013-09-14 07:18:00,52.2,52.2,29.68,NNE,26,0.0,5.4,100,0.00,,,0.00,VWS V13.01,2013-09-14 11:18:00,
2013-09-14 07:24:00,52.3,52.3,29.68,NNE,26,0.0,0.0,100,0.00,,,0.00,VWS V13.01,2013-09-14 11:24:00,
2013-09-14 07:30:00,52.3,52.3,29.68,NNE,27,0.0,6.3,100,0.00,,,0.00,VWS V13.01,2013-09-14 11:30:00,
2013-09-14 07:36:00,52.7,52.7,29.68,North,5,5.4,7.2,100,0.00,,,0.00,VWS V13.01,2013-09-14 11:36:00,
2013-09-14 07:42:00,52.7,52.7,29.68,NE,49,0.0,7.2,100,0.00,,,0.00,VWS V13.01,2013-09-14 11:42:00,
2013-09-14 07:48:00,53.2,53.2,29.68,NE,49,0.0,0.0,100,0.00,,,0.00,VWS V13.01,2013-09-14 11:48:00,
2013-09-14 07:54:00,53.1,53.1,29.68,North,353,0.0,8.1,100,0.00,,,0.00,VWS V13.01,2013-09-14 11:54:00,
2013-09-14 08:00:00,53.1,53.1,29.68,North,4,0.0,5.4,100,0.00,,,0.00,VWS V13.01,2013-09-14 12:00:00,
2013-09-14 08:06:00,53.1,53.1,29.68,NE,35,5.4,7.2,100,0.00,,,0.00,VWS V13.01,2013-09-14 12:06:00,
2013-09-14 08:12:00,53.2,53.2,29.68,NE,35,0.0,0.0,100,0.00,,,0.00,VWS V13.01,2013-09-14 12:12:00,
2013-09-14 08:18:00,53.2,53.2,29.68,North,9,0.0,5.4,100,0.00,,,0.00,VWS V13.01,2013-09-14 12:18:00,
2013-09-14 08:24:00,53.6,53.6,29.68,North,10,0.0,0.0,100,0.00,,,0.00,VWS V13.01,2013-09-14 12:24:00,
2013-09-14 08:30:00,54.0,54.0,29.68,NE,45,0.0,6.3,100,0.00,,,0.00,VWS V13.01,2013-09-14 12:30:00,
2013-09-14 08:36:00,54.1,54.1,29.68,NE,42,0.0,0.0,100,0.00,,,0.00,VWS V13.01,2013-09-14 12:36:00,
2013-09-14 08:42:00,54.5,54.5,29.68,NE,42,0.0,0.0,100,0.00,,,0.00,VWS V13.01,2013-09-14 12:42:00,
2013-09-14 08:47:00,54.9,54.9,29.68,North,353,0.0,0.0,100,0.00,,,0.00,VWS V13.01,2013-09-14 12:47:00,
2013-09-14 08:54:00,55.8,55.8,29.68,North,353,0.0,0.0,100,0.00,,,0.00,VWS V13.01,2013-09-14 12:54:00,
2013-09-14 09:00:00,56.5,56.5,29.68,NNE,20,0.0,0.0,100,0.00,,,0.00,VWS V13.01,2013-09-14 13:00:00,
2013-09-14 09:06:00,56.7,56.7,29.68,NNE,20,0.0,0.0,100,0.00,,,0.00,VWS V13.01,2013-09-14 13:06:00,
2013-09-14 09:12:00,57.0,57.0,29.68,NNE,20,0.0,0.0,100,0.00,,,0.00,VWS V13.01,2013-09-14 13:12:00,
2013-09-14 09:18:00,57.6,57.6,29.68,NNE,20,0.0,0.0,100,0.00,,,0.00,VWS V13.01,2013-09-14 13:18:00,
2013-09-14 09:24:00,57.6,57.6,29.68,NNE,20,0.0,0.0,100,0.00,,,0.00,VWS V13.01,2013-09-14 13:24:00,
2013-09-14 09:30:00,57.4,57.4,29.68,NNE,20,0.0,0.0,100,0.00,,,0.00,VWS V13.01,2013-09-14 13:30:00,
2013-09-14 09:36:00,57.2,57.2,29.71,NNE,20,0.0,0.0,100,0.00,,,0.00,VWS V13.01,2013-09-14 13:36:00,
2013-09-14 09:42:00,56.8,56.8,29.71,North,1,0.0,0.0,100,0.00,,,0.00,VWS V13.01,2013-09-14 13:42:00,
2013-09-14 09:48:00,57.0,57.0,29.71,North,1,0.0,0.0,100,0.00,,,0.00,VWS V13.01,2013-09-14 13:48:00,
2013-09-14 09:54:00,57.0,57.0,29.71,North,1,0.0,0.0,100,0.00,,,0.00,VWS V13.01,2013-09-14 13:54:00,
2013-09-14 10:00:00,58.3,58.3,29.71,North,1,0.0,0.0,100,0.00,,,0.00,VWS V13.01,2013-09-14 14:00:00,
2013-09-14 10:06:00,59.4,59.4,29.71,North,1,0.0,0.0,100,0.00,,,0.00,VWS V13.01,2013-09-14 14:06:00,
2013-09-14 10:12:00,60.3,59.1,29.71,North,3,0.0,0.0,96,0.00,,,0.00,VWS V13.01,2013-09-14 14:12:00,
2013-09-14 10:18:00,65.7,56.4,29.71,NNE,12,0.0,0.0,72,0.00,,,0.00,VWS V13.01,2013-09-14 14:18:00,
2013-09-14 10:24:00,69.1,54.6,29.71,NNE,12,0.0,0.0,60,0.00,,,0.00,VWS V13.01,2013-09-14 14:24:00,
2013-09-14 10:30:00,62.6,50.3,29.71,West,266,3.4,7.2,64,0.00,,,0.00,VWS V13.01,2013-09-14 14:30:00,
2013-09-14 10:36:00,60.8,53.2,29.71,NNE,18,4.7,10.7,76,0.00,,,0.00,VWS V13.01,2013-09-14 14:36:00,
2013-09-14 10:42:00,59.7,52.2,29.71,NE,50,0.0,0.0,76,0.00,,,0.00,VWS V13.01,2013-09-14 14:42:00,
2013-09-14 10:48:00,58.5,54.9,29.71,North,4,0.0,7.2,88,0.00,,,0.00,VWS V13.01,2013-09-14 14:48:00,
2013-09-14 10:54:00,58.3,54.8,29.71,NNE,28,0.0,0.0,88,0.00,,,0.00,VWS V13.01,2013-09-14 14:54:00,
2013-09-14 11:00:00,57.9,56.8,29.71,NNE,29,0.0,0.0,96,0.00,,,0.00,VWS V13.01,2013-09-14 15:00:00,
2013-09-14 11:06:00,57.7,56.6,29.71,West,273,0.0,0.0,96,0.00,,,0.00,VWS V13.01,2013-09-14 15:06:00,
2013-09-14 11:12:00,57.7,57.7,29.71,NW,308,0.0,0.0,100,0.00,,,0.00,VWS V13.01,2013-09-14 15:12:00,
2013-09-14 11:18:00,57.6,56.4,29.71,North,349,0.0,9.8,96,0.00,,,0.00,VWS V13.01,2013-09-14 15:18:00,
2013-09-14 11:24:00,58.5,58.5,29.71,North,353,0.0,0.0,100,0.00,,,0.00,VWS V13.01,2013-09-14 15:24:00,
2013-09-14 11:30:00,58.1,57.0,29.71,NW,324,7.4,12.5,96,0.00,,,0.00,VWS V13.01,2013-09-14 15:30:00,
2013-09-14 11:36:00,58.3,57.2,29.71,NW,315,6.0,11.6,96,0.00,,,0.00,VWS V13.01,2013-09-14 15:36:00,
2013-09-14 11:42:00,57.9,57.9,29.71,North,6,8.1,12.5,100,0.00,,,0.00,VWS V13.01,2013-09-14 15:42:00,
2013-09-14 11:48:00,57.7,57.7,29.71,North,0,4.0,11.6,100,0.00,,,0.00,VWS V13.01,2013-09-14 15:48:00,
2013-09-14 11:54:00,58.3,58.3,29.71,NW,322,8.7,11.6,100,0.00,,,0.00,VWS V13.01,2013-09-14 15:54:00,
2013-09-14 12:00:00,59.5,56.0,29.71,WNW,292,5.4,12.5,88,0.00,,,0.00,VWS V13.01,2013-09-14 16:00:00,
2013-09-14 12:06:00,59.7,52.2,29.71,NNW,341,6.0,12.5,76,0.00,,,0.00,VWS V13.01,2013-09-14 16:06:00,
2013-09-14 12:12:00,59.4,55.8,29.71,NNW,343,9.4,12.5,88,0.00,,,0.00,VWS V13.01,2013-09-14 16:12:00,
2013-09-14 12:18:00,59.0,57.9,29.71,North,11,8.1,10.7,96,0.00,,,0.00,VWS V13.01,2013-09-14 16:18:00,
2013-09-14 12:24:00,58.5,57.3,29.68,NE,41,9.4,16.1,96,0.00,,,0.00,VWS V13.01,2013-09-14 16:24:00,
2013-09-14 12:30:00,58.1,58.1,29.68,NNW,339,8.7,15.2,100,0.00,,,0.00,VWS V13.01,2013-09-14 16:30:00,
2013-09-14 12:36:00,58.1,58.1,29.68,NNW,344,8.1,16.6,100,0.00,,,0.00,VWS V13.01,2013-09-14 16:36:00,
2013-09-14 12:42:00,58.8,58.8,29.68,NNE,23,4.0,12.5,100,0.00,,,0.00,VWS V13.01,2013-09-14 16:42:00,
2013-09-14 12:48:00,58.3,57.2,29.68,NNW,346,8.1,12.5,96,0.00,,,0.00,VWS V13.01,2013-09-14 16:48:00,
2013-09-14 12:54:00,59.9,58.8,29.68,North,353,6.0,9.8,96,0.00,,,0.00,VWS V13.01,2013-09-14 16:54:00,
2013-09-14 13:00:00,59.9,56.3,29.68,North,357,8.7,13.4,88,0.00,,,0.00,VWS V13.01,2013-09-14 17:00:00,
2013-09-14 13:06:00,60.4,56.9,29.68,NW,307,8.7,11.6,88,0.00,,,0.00,VWS V13.01,2013-09-14 17:06:00,
2013-09-14 13:12:00,60.1,58.9,29.68,NW,321,5.4,16.1,96,0.00,,,0.00,VWS V13.01,2013-09-14 17:12:00,
2013-09-14 13:18:00,59.4,58.2,29.68,NNW,341,6.0,12.5,96,0.00,,,0.00,VWS V13.01,2013-09-14 17:18:00,
2013-09-14 13:24:00,59.0,59.0,29.68,NNW,328,5.4,9.8,100,0.00,,,0.00,VWS V13.01,2013-09-14 17:24:00,
2013-09-14 13:30:00,59.7,58.6,29.68,NNW,330,7.4,9.8,96,0.00,,,0.00,VWS V13.01,2013-09-14 17:30:00,
2013-09-14 13:36:00,60.6,59.5,29.68,NNW,346,7.4,9.8,96,0.00,,,0.00,VWS V13.01,2013-09-14 17:36:00,
2013-09-14 13:42:00,59.9,58.8,29.68,North,4,4.7,16.6,96,0.00,,,0.00,VWS V13.01,2013-09-14 17:42:00,
2013-09-14 13:48:00,59.9,58.8,29.68,North,0,4.7,11.6,96,0.00,,,0.00,VWS V13.01,2013-09-14 17:48:00,
2013-09-14 13:54:00,59.4,58.2,29.68,NNW,334,4.7,14.3,96,0.00,,,0.00,VWS V13.01,2013-09-14 17:54:00,
2013-09-14 14:00:00,59.7,58.6,29.68,NNW,328,8.1,10.7,96,0.00,,,0.00,VWS V13.01,2013-09-14 18:00:00,
2013-09-14 14:06:00,60.1,58.9,29.68,NNW,331,4.7,12.5,96,0.00,,,0.00,VWS V13.01,2013-09-14 18:06:00,
2013-09-14 14:12:00,59.9,58.8,29.68,North,10,5.4,11.6,96,0.00,,,0.00,VWS V13.01,2013-09-14 18:12:00,
2013-09-14 14:18:00,59.9,58.8,29.68,North,3,4.7,8.1,96,0.00,,,0.00,VWS V13.01,2013-09-14 18:18:00,
2013-09-14 14:24:00,60.3,59.1,29.68,NNW,335,5.4,9.8,96,0.00,,,0.00,VWS V13.01,2013-09-14 18:24:00,
2013-09-14 14:30:00,60.4,56.9,29.68,NW,308,9.4,16.1,88,0.00,,,0.00,VWS V13.01,2013-09-14 18:30:00,
2013-09-14 14:36:00,60.6,57.0,29.68,NNW,346,7.4,15.2,88,0.00,,,0.00,VWS V13.01,2013-09-14 18:36:00,
2013-09-14 14:42:00,61.2,56.3,29.68,NNW,332,5.4,12.5,84,0.00,,,0.00,VWS V13.01,2013-09-14 18:42:00,
2013-09-14 14:48:00,60.4,56.9,29.68,NW,315,9.4,16.1,88,0.00,,,0.00,VWS V13.01,2013-09-14 18:48:00,
2013-09-14 14:54:00,60.3,56.7,29.68,NNE,19,9.4,12.5,88,0.00,,,0.00,VWS V13.01,2013-09-14 18:54:00,
2013-09-14 15:00:00,60.6,57.0,29.68,North,353,8.1,10.7,88,0.00,,,0.00,VWS V13.01,2013-09-14 19:00:00,
2013-09-14 15:06:00,60.3,56.7,29.68,North,8,4.7,17.4,88,0.00,,,0.00,VWS V13.01,2013-09-14 19:06:00,
2013-09-14 15:12:00,60.1,58.9,29.68,North,357,8.7,16.1,96,0.00,,,0.00,VWS V13.01,2013-09-14 19:12:00,
2013-09-14 15:18:00,60.4,59.3,29.68,NNE,24,5.4,10.7,96,0.00,,,0.00,VWS V13.01,2013-09-14 19:18:00,
2013-09-14 15:24:00,60.1,56.5,29.68,North,2,12.1,16.6,88,0.00,,,0.00,VWS V13.01,2013-09-14 19:24:00,
2013-09-14 15:30:00,59.9,56.3,29.68,NNW,339,11.4,15.2,88,0.00,,,0.00,VWS V13.01,2013-09-14 19:30:00,
2013-09-14 15:36:00,59.4,55.8,29.65,North,357,8.7,14.3,88,0.00,,,0.00,VWS V13.01,2013-09-14 19:36:00,
2013-09-14 15:42:00,59.4,58.2,29.65,WNW,293,9.4,14.3,96,0.00,,,0.00,VWS V13.01,2013-09-14 19:42:00,
2013-09-14 15:48:00,59.4,58.2,29.65,NW,313,8.7,16.6,96,0.00,,,0.00,VWS V13.01,2013-09-14 19:48:00,
2013-09-14 15:54:00,59.2,59.2,29.68,NNE,14,6.0,14.3,100,0.00,,,0.00,VWS V13.01,2013-09-14 19:54:00,
2013-09-14 16:00:00,59.0,59.0,29.68,North,3,11.4,17.4,100,0.00,,,0.00,VWS V13.01,2013-09-14 20:00:00,
2013-09-14 16:06:00,58.8,58.8,29.68,North,357,9.4,17.4,100,0.00,,,0.00,VWS V13.01,2013-09-14 20:06:00,
2013-09-14 16:12:00,58.8,58.8,29.68,NNW,348,12.4,16.6,100,0.00,,,0.00,VWS V13.01,2013-09-14 20:12:00,
2013-09-14 16:18:00,58.6,58.6,29.68,NE,37,15.1,20.1,100,0.00,,,0.00,VWS V13.01,2013-09-14 20:18:00,
2013-09-14 16:24:00,58.8,58.8,29.68,NNW,342,4.7,21.9,100,0.00,,,0.00,VWS V13.01,2013-09-14 20:24:00,
2013-09-14 16:30:00,58.8,58.8,29.68,North,349,11.4,15.2,100,0.00,,,0.00,VWS V13.01,2013-09-14 20:30:00,
2013-09-14 16:36:00,59.2,59.2,29.68,North,4,8.7,12.5,100,0.00,,,0.00,VWS V13.01,2013-09-14 20:36:00,
2013-09-14 16:42:00,59.4,59.4,29.68,WNW,290,6.7,11.6,100,0.00,,,0.00,VWS V13.01,2013-09-14 20:42:00,
2013-09-14 16:48:00,59.2,59.2,29.68,North,349,5.4,16.1,100,0.00,,,0.00,VWS V13.01,2013-09-14 20:48:00,
2013-09-14 16:54:00,59.4,59.4,29.68,ESE,110,5.4,21.0,100,0.00,,,0.00,VWS V13.01,2013-09-14 20:54:00,
2013-09-14 17:00:00,59.0,59.0,29.68,North,357,9.4,16.6,100,0.00,,,0.00,VWS V13.01,2013-09-14 21:00:00,
2013-09-14 17:06:00,59.0,59.0,29.71,NNW,346,8.1,15.2,100,0.00,,,0.00,VWS V13.01,2013-09-14 21:06:00,
2013-09-14 17:12:00,59.0,59.0,29.71,NW,306,8.7,12.5,100,0.00,,,0.00,VWS V13.01,2013-09-14 21:12:00,
2013-09-14 17:18:00,58.6,58.6,29.71,NNE,23,11.4,16.1,100,0.00,,,0.00,VWS V13.01,2013-09-14 21:18:00,
2013-09-14 17:24:00,58.6,58.6,29.71,North,0,3.4,16.1,100,0.00,,,0.00,VWS V13.01,2013-09-14 21:24:00,
2013-09-14 17:30:00,58.5,58.5,29.71,WNW,297,8.1,10.7,100,0.00,,,0.00,VWS V13.01,2013-09-14 21:30:00,
2013-09-14 17:36:00,58.3,58.3,29.71,North,353,4.7,16.1,100,0.00,,,0.00,VWS V13.01,2013-09-14 21:36:00,
2013-09-14 17:42:00,58.3,58.3,29.71,NNW,338,8.7,11.6,100,0.00,,,0.00,VWS V13.01,2013-09-14 21:42:00,
2013-09-14 17:48:00,58.3,58.3,29.71,NE,39,4.0,15.2,100,0.00,,,0.00,VWS V13.01,2013-09-14 21:48:00,
2013-09-14 17:54:00,58.1,58.1,29.71,North,357,4.0,16.1,100,0.00,,,0.00,VWS V13.01,2013-09-14 21:54:00,
2013-09-14 18:00:00,57.9,57.9,29.71,North,357,8.1,16.6,100,0.00,,,0.00,VWS V13.01,2013-09-14 22:00:00,
2013-09-14 18:06:00,57.9,57.9,29.71,North,357,5.4,11.6,100,0.00,,,0.00,VWS V13.01,2013-09-14 22:06:00,
2013-09-14 18:12:00,57.7,57.7,29.71,West,278,6.0,16.1,100,0.00,,,0.00,VWS V13.01,2013-09-14 22:12:00,
2013-09-14 18:18:00,57.6,57.6,29.71,NNW,340,8.7,15.2,100,0.00,,,0.00,VWS V13.01,2013-09-14 22:18:00,
2013-09-14 18:24:00,57.4,57.4,29.71,NNW,337,6.0,12.5,100,0.00,,,0.00,VWS V13.01,2013-09-14 22:24:00,
2013-09-14 18:30:00,57.2,57.2,29.71,NW,320,5.4,15.2,100,0.00,,,0.00,VWS V13.01,2013-09-14 22:30:00,
2013-09-14 18:36:00,57.2,57.2,29.71,NNE,25,4.0,17.4,100,0.00,,,0.00,VWS V13.01,2013-09-14 22:36:00,
2013-09-14 18:42:00,57.0,57.0,29.71,North,357,5.4,11.6,100,0.00,,,0.00,VWS V13.01,2013-09-14 22:42:00,
2013-09-14 18:48:00,56.8,56.8,29.71,North,5,4.0,10.7,100,0.00,,,0.00,VWS V13.01,2013-09-14 22:48:00,
2013-09-14 18:52:00,57.0,57.0,29.74,North,357,8.7,11.6,100,0.00,,,0.00,VWS V13.01,2013-09-14 22:52:00,
2013-09-14 18:58:00,56.8,56.8,29.74,NE,47,9.4,12.5,100,0.00,,,0.00,VWS V13.01,2013-09-14 22:58:00,
2013-09-14 19:04:00,56.7,56.7,29.74,North,1,7.4,11.6,100,0.00,,,0.00,VWS V13.01,2013-09-14 23:04:00,
2013-09-14 19:10:00,56.7,56.7,29.74,NNW,342,5.4,12.5,100,0.00,,,0.00,VWS V13.01,2013-09-14 23:10:00,
2013-09-14 19:16:00,56.5,56.5,29.74,NNW,335,7.4,11.6,100,0.00,,,0.00,VWS V13.01,2013-09-14 23:16:00,
2013-09-14 19:22:00,56.5,56.5,29.74,NW,321,0.0,10.7,100,0.00,,,0.00,VWS V13.01,2013-09-14 23:22:00,
2013-09-14 19:28:00,56.1,56.1,29.74,NNW,340,4.0,7.2,100,0.00,,,0.00,VWS V13.01,2013-09-14 23:28:00,
2013-09-14 19:34:00,55.6,55.6,29.74,NW,314,0.0,4.5,100,0.00,,,0.00,VWS V13.01,2013-09-14 23:34:00,
2013-09-14 19:40:00,54.7,54.7,29.74,NW,314,0.0,0.0,100,0.00,,,0.00,VWS V13.01,2013-09-14 23:40:00,
2013-09-14 19:46:00,53.1,53.1,29.74,NW,319,0.0,0.0,100,0.00,,,0.00,VWS V13.01,2013-09-14 23:46:00,
2013-09-14 19:52:00,52.5,52.5,29.74,NW,319,0.0,0.0,100,0.00,,,0.00,VWS V13.01,2013-09-14 23:52:00,
2013-09-14 19:58:00,52.0,52.0,29.74,NW,319,0.0,0.0,100,0.00,,,0.00,VWS V13.01,2013-09-14 23:58:00,
2013-09-14 20:04:00,51.3,51.3,29.74,NW,319,0.0,0.0,100,0.00,,,0.00,VWS V13.01,2013-09-15 00:04:00,
2013-09-14 20:10:00,51.8,51.8,29.74,NW,311,5.4,7.2,100,0.00,,,0.00,VWS V13.01,2013-09-15 00:10:00,
2013-09-14 20:16:00,51.6,51.6,29.74,NW,320,0.0,0.0,100,0.00,,,0.00,VWS V13.01,2013-09-15 00:16:00,
2013-09-14 20:22:00,51.4,51.4,29.74,NNW,328,3.4,4.5,100,0.00,,,0.00,VWS V13.01,2013-09-15 00:22:00,
2013-09-14 20:28:00,51.3,51.3,29.74,North,3,0.0,0.0,100,0.00,,,0.00,VWS V13.01,2013-09-15 00:28:00,
2013-09-14 20:34:00,51.1,51.1,29.74,NNW,331,0.0,0.0,100,0.00,,,0.00,VWS V13.01,2013-09-15 00:34:00,
2013-09-14 20:40:00,50.9,50.9,29.74,North,4,0.0,0.0,100,0.00,,,0.00,VWS V13.01,2013-09-15 00:40:00,
2013-09-14 20:46:00,50.5,50.5,29.74,North,353,0.0,0.0,100,0.00,,,0.00,VWS V13.01,2013-09-15 00:46:00,
2013-09-14 20:52:00,50.0,50.0,29.74,North,353,0.0,0.0,100,0.00,,,0.00,VWS V13.01,2013-09-15 00:52:00,
2013-09-14 20:58:00,50.0,50.0,29.74,North,353,0.0,0.0,100,0.00,,,0.00,VWS V13.01,2013-09-15 00:58:00,
2013-09-14 21:04:00,50.2,50.2,29.74,NNW,339,0.0,0.0,100,0.00,,,0.00,VWS V13.01,2013-09-15 01:04:00,
2013-09-14 21:10:00,50.2,50.2,29.74,NNW,339,0.0,0.0,100,0.00,,,0.00,VWS V13.01,2013-09-15 01:10:00,
2013-09-14 21:16:00,50.2,50.2,29.74,NNW,337,0.0,6.3,100,0.00,,,0.00,VWS V13.01,2013-09-15 01:16:00,
2013-09-14 21:22:00,50.2,50.2,29.74,NNW,337,0.0,6.3,100,0.00,,,0.00,VWS V13.01,2013-09-15 01:22:00,
2013-09-14 21:28:00,50.0,50.0,29.74,NNW,348,0.0,0.0,100,0.00,,,0.00,VWS V13.01,2013-09-15 01:28:00,
2013-09-14 21:34:00,49.8,49.8,29.74,NNW,348,0.0,0.0,100,0.00,,,0.00,VWS V13.01,2013-09-15 01:34:00,
2013-09-14 21:40:00,49.6,49.6,29.74,North,353,0.0,0.0,100,0.00,,,0.00,VWS V13.01,2013-09-15 01:40:00,
2013-09-14 21:46:00,49.6,49.6,29.74,North,353,0.0,0.0,100,0.00,,,0.00,VWS V13.01,2013-09-15 01:46:00,
2013-09-14 21:52:00,49.5,49.5,29.74,North,353,0.0,0.0,100,0.00,,,0.00,VWS V13.01,2013-09-15 01:52:00,
2013-09-14 21:58:00,49.1,49.1,29.74,North,353,0.0,0.0,100,0.00,,,0.00,VWS V13.01,2013-09-15 01:58:00,
2013-09-14 22:04:00,49.1,49.1,29.74,North,353,0.0,0.0,100,0.00,,,0.00,VWS V13.01,2013-09-15 02:04:00,
2013-09-14 22:10:00,49.3,49.3,29.74,North,353,0.0,0.0,100,0.00,,,0.00,VWS V13.01,2013-09-15 02:10:00,
2013-09-14 22:16:00,49.1,49.1,29.74,North,353,0.0,0.0,100,0.00,,,0.00,VWS V13.01,2013-09-15 02:16:00,
2013-09-14 22:22:00,49.1,49.1,29.77,North,350,0.0,0.0,100,0.00,,,0.00,VWS V13.01,2013-09-15 02:22:00,
2013-09-14 22:28:00,48.4,48.4,29.77,North,350,0.0,0.0,100,0.00,,,0.00,VWS V13.01,2013-09-15 02:28:00,
2013-09-14 22:34:00,47.3,47.3,29.74,North,350,0.0,0.0,100,0.00,,,0.00,VWS V13.01,2013-09-15 02:34:00,
2013-09-14 22:40:00,47.7,47.7,29.74,North,350,0.0,0.0,100,0.00,,,0.00,VWS V13.01,2013-09-15 02:40:00,
2013-09-14 22:46:00,47.8,47.8,29.74,North,350,0.0,0.0,100,0.00,,,0.00,VWS V13.01,2013-09-15 02:46:00,
2013-09-14 22:52:00,48.2,48.2,29.74,North,350,0.0,0.0,100,0.00,,,0.00,VWS V13.01,2013-09-15 02:52:00,
2013-09-14 22:58:00,47.7,47.7,29.74,North,350,0.0,0.0,100,0.00,,,0.00,VWS V13.01,2013-09-15 02:58:00,
2013-09-14 23:04:00,48.2,48.2,29.74,North,350,0.0,0.0,100,0.00,,,0.00,VWS V13.01,2013-09-15 03:04:00,
2013-09-14 23:10:00,48.6,48.6,29.74,North,350,0.0,0.0,100,0.00,,,0.00,VWS V13.01,2013-09-15 03:10:00,
2013-09-14 23:16:00,48.4,48.4,29.74,North,350,0.0,0.0,100,0.00,,,0.00,VWS V13.01,2013-09-15 03:16:00,
2013-09-14 23:22:00,48.2,48.2,29.74,North,350,0.0,0.0,100,0.00,,,0.00,VWS V13.01,2013-09-15 03:22:00,
2013-09-14 23:28:00,47.1,47.1,29.74,North,350,0.0,0.0,100,0.00,,,0.00,VWS V13.01,2013-09-15 03:28:00,
2013-09-14 23:34:00,47.1,47.1,29.74,North,350,0.0,0.0,100,0.00,,,0.00,VWS V13.01,2013-09-15 03:34:00,
2013-09-14 23:40:00,47.8,47.8,29.74,NW,324,0.0,0.0,100,0.00,,,0.00,VWS V13.01,2013-09-15 03:40:00,
2013-09-14 23:46:00,47.7,47.7,29.74,North,353,4.0,5.4,100,0.00,,,0.00,VWS V13.01,2013-09-15 03:46:00,
2013-09-14 23:52:00,48.0,48.0,29.74,NNW,341,0.0,0.0,100,0.00,,,0.00,VWS V13.01,2013-09-15 03:52:00,
2013-09-14 23:58:00,48.2,48.2,29.74,NNW,340,0.0,8.1,100,0.00,,,0.00,VWS V13.01,2013-09-15 03:58:00,